Loma Rica, California
Current Conditions -  °F | °C
As of 5:58 AM on Thursday 29 Jan 2015 (Local Time) from KBAB Reporting Station
Clear Clear  
Wind Chill: 39°   Ceiling: Unl
Heat Index: 42°   Visibility: 10mi
Dew Point: 42°   Wind: 5mph
Humidity: 100%   Direction: 20°NNE
Pressure: 30.13"   Gusts: NA
Location:  39.1912°N, 121.489°W
Report Text: KBAB 291358Z AUTO 02004KT 10SM CLR 06/06 A3013 RMK AO2 SLP280 T00560056 $
Loading
Personal Weather Stations






























Interactive Weather Map New forecast layout! Learn more

10-Day Weather Forecast

Advertisements
Track Severe Weather on mobile